Time;durP1;ratioP1;P1;durP2;ratioP2;P2;SDS_P1;SDS_P2;PMS_P1;PMS_P2;Temp;Humidity;BMP_temperature;BMP_pressure;BME280_temperature;BME280_humidity;BME280_pressure;Samples;Min_cycle;Max_cycle;Signal;HPM_P1;HPM_P2
2021/03/05 00:02:14;;;;;;;25.23;9.93;;;3.10;99.90;;;;;;5095642;28;20171;-75
2021/03/05 00:04:39;;;;;;;18.83;8.17;;;3.10;99.90;;;;;;5095091;28;20168;-78
2021/03/05 00:07:05;;;;;;;14.73;7.30;;;3.10;99.90;;;;;;5094867;28;20167;-75
2021/03/05 00:09:30;;;;;;;25.50;8.07;;;3.00;99.90;;;;;;5095007;28;20195;-78
2021/03/05 00:11:56;;;;;;;30.10;8.00;;;3.00;99.90;;;;;;5093748;28;20186;-79
2021/03/05 00:14:21;;;;;;;16.60;7.00;;;3.00;99.90;;;;;;5094853;28;20238;-78
2021/03/05 00:16:47;;;;;;;22.97;7.77;;;3.00;99.90;;;;;;5094849;28;20176;-76
2021/03/05 00:19:12;;;;;;;17.50;7.03;;;3.00;99.90;;;;;;5094535;28;20299;-75
2021/03/05 00:21:38;;;;;;;17.23;8.10;;;3.00;99.90;;;;;;5094874;28;20206;-77
2021/03/05 00:24:04;;;;;;;20.13;8.30;;;3.10;99.90;;;;;;5095047;28;20164;-77
2021/03/05 00:26:29;;;;;;;18.50;7.20;;;3.10;99.90;;;;;;5094959;28;20519;-76
2021/03/05 00:28:55;;;;;;;18.30;6.87;;;3.00;99.90;;;;;;5094403;28;20422;-78
2021/03/05 00:31:21;;;;;;;15.97;7.33;;;3.00;99.90;;;;;;5094562;28;20655;-76
2021/03/05 00:33:46;;;;;;;18.30;6.47;;;3.10;99.90;;;;;;5094809;28;20546;-76
2021/03/05 00:36:12;;;;;;;18.40;8.43;;;3.10;99.90;;;;;;5093909;28;20663;-78
2021/03/05 00:38:38;;;;;;;21.30;8.93;;;3.10;99.90;;;;;;5094077;28;20219;-77
2021/03/05 00:41:03;;;;;;;24.80;7.20;;;3.10;99.90;;;;;;5094309;28;20819;-75
2021/03/05 00:43:29;;;;;;;15.17;6.80;;;3.10;99.90;;;;;;5094430;28;20180;-76
2021/03/05 00:45:54;;;;;;;19.23;6.40;;;3.10;99.90;;;;;;5094371;28;20655;-78
2021/03/05 00:48:20;;;;;;;18.03;6.80;;;3.20;99.90;;;;;;5093937;28;20196;-78
2021/03/05 00:50:46;;;;;;;17.93;7.03;;;3.00;99.90;;;;;;5094313;28;20583;-78
2021/03/05 00:53:12;;;;;;;8.73;7.43;;;3.00;99.90;;;;;;5094311;28;20218;-78
2021/03/05 00:55:37;;;;;;;17.37;8.13;;;3.00;99.90;;;;;;5094233;28;20183;-76
2021/03/05 00:58:03;;;;;;;26.37;8.23;;;3.00;99.90;;;;;;5093777;28;20216;-77
2021/03/05 01:00:28;;;;;;;18.33;6.33;;;3.00;99.90;;;;;;5092861;28;20221;-76
2021/03/05 01:02:54;;;;;;;25.77;6.57;;;3.00;99.90;;;;;;5092855;28;20179;-77
2021/03/05 01:05:20;;;;;;;17.80;6.90;;;3.00;99.90;;;;;;5092667;28;20195;-76
2021/03/05 01:07:45;;;;;;;14.30;6.07;;;3.00;99.90;;;;;;5093712;28;20615;-77
2021/03/05 01:10:12;;;;;;;17.43;6.73;;;3.00;99.90;;;;;;5094165;28;20266;-76
2021/03/05 01:12:37;;;;;;;12.88;6.25;;;2.90;99.90;;;;;;5093998;28;20195;-77
2021/03/05 01:15:06;;;;;;;15.33;5.93;;;2.90;99.90;;;;;;5094003;28;20187;-74
2021/03/05 01:17:31;;;;;;;22.63;7.15;;;3.00;99.90;;;;;;5093361;28;20188;-75
2021/03/05 01:19:57;;;;;;;14.80;6.60;;;2.90;99.90;;;;;;5093989;28;20277;-77
2021/03/05 01:22:23;;;;;;;20.02;7.53;;;2.90;99.90;;;;;;5093800;28;20168;-78
2021/03/05 01:24:49;;;;;;;15.20;6.63;;;2.80;99.90;;;;;;5093578;28;20175;-75
2021/03/05 01:27:14;;;;;;;22.47;9.30;;;2.80;99.90;;;;;;5093141;28;20164;-77
2021/03/05 01:29:40;;;;;;;10.87;6.30;;;2.70;99.90;;;;;;5093597;28;20219;-75
2021/03/05 01:32:05;;;;;;;17.83;6.70;;;2.70;99.90;;;;;;5093688;28;20644;-76
2021/03/05 01:34:31;;;;;;;16.70;6.10;;;2.70;99.90;;;;;;5093757;28;20218;-74
2021/03/05 01:36:57;;;;;;;23.43;7.63;;;2.60;99.90;;;;;;5093172;28;20658;-77
2021/03/05 01:39:23;;;;;;;15.70;6.27;;;2.60;99.90;;;;;;5093259;28;20664;-75
2021/03/05 01:41:48;;;;;;;14.10;6.37;;;2.60;99.90;;;;;;5093405;28;20199;-76
2021/03/05 01:44:15;;;;;;;20.00;7.13;;;2.70;99.90;;;;;;5093414;28;20165;-76
2021/03/05 01:46:41;;;;;;;14.57;6.18;;;2.70;99.90;;;;;;5093365;28;20678;-77
2021/03/05 01:49:07;;;;;;;18.10;6.17;;;2.80;99.90;;;;;;5091927;28;20200;-77
2021/03/05 01:51:34;;;;;;;20.08;7.30;;;2.70;99.90;;;;;;5093213;28;20406;-75
2021/03/05 01:54:00;;;;;;;13.05;6.30;;;2.70;99.90;;;;;;5093157;28;20172;-78
2021/03/05 01:56:45;;;;;;;25.38;6.45;;;2.70;99.90;;;;;;5092244;28;20180;-77
2021/03/05 01:59:14;;;;;;;11.90;5.10;;;2.70;99.90;;;;;;5092694;28;20207;-75
2021/03/05 02:01:40;;;;;;;15.88;5.47;;;2.70;99.90;;;;;;5093144;28;20166;-76
2021/03/05 02:04:13;;;;;;;9.05;5.55;;;2.80;99.90;;;;;;5093391;28;20172;-76
2021/03/05 02:06:39;;;;;;;13.05;4.80;;;2.80;99.90;;;;;;5093656;28;20195;-75
2021/03/05 02:09:07;;;;;;;13.57;6.10;;;2.70;99.90;;;;;;5092748;28;20248;-76
2021/03/05 02:11:33;;;;;;;17.88;6.15;;;2.80;99.90;;;;;;5093256;28;20542;-76
2021/03/05 02:14:03;;;;;;;12.43;6.07;;;2.70;99.90;;;;;;5091609;28;20643;-76
2021/03/05 02:16:59;;;;;;;14.95;5.10;;;2.70;99.90;;;;;;5093157;28;20172;-77
2021/03/05 02:19:55;;;;;;;17.45;4.80;;;2.60;99.90;;;;;;5093006;28;20231;-76
2021/03/05 02:22:39;;;;;;;20.98;6.82;;;2.50;99.90;;;;;;5093115;28;20165;-77
2021/03/05 02:25:21;;;;;;;16.25;6.13;;;2.50;99.90;;;;;;5091726;28;20274;-75
2021/03/05 02:28:18;;;;;;;15.32;5.30;;;2.50;99.90;;;;;;5092644;28;20683;-77
2021/03/05 02:31:11;;;;;;;13.25;7.38;;;2.50;99.90;;;;;;5093122;28;20169;-76
2021/03/05 02:34:03;;;;;;;15.23;5.75;;;2.60;99.90;;;;;;5093115;28;20176;-76
2021/03/05 02:36:49;;;;;;;17.52;6.50;;;2.70;99.90;;;;;;5092971;28;20183;-76
2021/03/05 02:39:41;;;;;;;12.98;5.72;;;2.70;99.90;;;;;;5092595;28;20207;-76
2021/03/05 02:42:10;;;;;;;15.52;6.50;;;2.70;99.90;;;;;;5092730;28;20589;-76
2021/03/05 02:44:46;;;;;;;11.90;6.30;;;2.70;99.90;;;;;;5092883;28;20164;-75
2021/03/05 02:47:17;;;;;;;10.43;6.13;;;2.80;99.90;;;;;;5092422;28;20175;-77
2021/03/05 02:49:44;;;;;;;14.30;6.75;;;2.80;99.90;;;;;;5092851;28;20210;-77
2021/03/05 02:52:16;;;;;;;15.82;8.63;;;2.70;99.90;;;;;;5092606;28;20187;-76
2021/03/05 02:54:43;;;;;;;17.13;7.53;;;2.70;99.90;;;;;;5092745;28;20260;-75
2021/03/05 02:57:14;;;;;;;16.55;7.18;;;2.80;99.90;;;;;;5092499;28;20182;-75
2021/03/05 02:59:41;;;;;;;19.63;6.85;;;2.70;99.90;;;;;;5093727;28;20595;-75
2021/03/05 03:02:08;;;;;;;18.85;7.70;;;2.70;99.90;;;;;;5096332;28;20167;-77
2021/03/05 03:04:34;;;;;;;27.48;9.68;;;2.70;99.90;;;;;;5096312;28;20536;-76
2021/03/05 03:07:01;;;;;;;24.60;8.50;;;2.70;99.90;;;;;;5094703;28;20209;-75
2021/03/05 03:09:27;;;;;;;19.27;9.63;;;2.80;99.90;;;;;;5096221;28;20219;-76
2021/03/05 03:11:53;;;;;;;24.33;9.70;;;2.80;99.90;;;;;;5096498;28;20182;-76
2021/03/05 03:14:20;;;;;;;21.93;10.90;;;2.80;99.90;;;;;;5095929;28;20274;-77
2021/03/05 03:16:47;;;;;;;28.13;11.02;;;2.80;99.90;;;;;;5096168;28;20414;-76
2021/03/05 03:19:15;;;;;;;25.40;12.02;;;2.80;99.90;;;;;;5095610;28;20659;-77
2021/03/05 03:21:41;;;;;;;31.45;12.20;;;2.80;99.90;;;;;;5096264;28;20199;-76
2021/03/05 03:24:08;;;;;;;27.67;10.73;;;2.80;99.90;;;;;;5096125;28;20246;-76
2021/03/05 03:26:38;;;;;;;36.85;12.65;;;2.80;99.90;;;;;;5095841;28;20175;-76
2021/03/05 03:29:08;;;;;;;40.70;13.02;;;2.90;99.90;;;;;;5095566;28;20196;-78
2021/03/05 03:31:36;;;;;;;37.90;15.27;;;2.80;99.90;;;;;;5096007;28;20169;-77
2021/03/05 03:34:03;;;;;;;34.95;15.57;;;2.90;99.90;;;;;;5095749;28;20198;-75
2021/03/05 03:36:30;;;;;;;31.92;15.48;;;2.90;99.90;;;;;;5095606;28;20199;-75
2021/03/05 03:38:56;;;;;;;33.05;17.20;;;2.90;99.90;;;;;;5095258;28;20219;-76
2021/03/05 03:41:22;;;;;;;35.90;16.63;;;2.90;99.90;;;;;;5095709;28;20161;-77
2021/03/05 03:43:47;;;;;;;32.60;14.38;;;3.00;99.90;;;;;;5095708;28;20225;-75
2021/03/05 03:46:13;;;;;;;32.07;15.83;;;3.00;99.90;;;;;;5095523;28;20687;-77
2021/03/05 03:48:49;;;;;;;34.28;17.10;;;2.90;99.90;;;;;;5094894;28;20202;-76
2021/03/05 03:51:20;;;;;;;41.03;18.40;;;3.00;99.90;;;;;;5095480;28;20176;-77
2021/03/05 03:53:47;;;;;;;34.70;16.95;;;3.00;99.90;;;;;;5095481;28;20168;-77
2021/03/05 03:56:14;;;;;;;41.55;19.48;;;2.90;99.90;;;;;;5095301;28;20168;-76
2021/03/05 03:58:41;;;;;;;36.25;16.23;;;2.90;99.90;;;;;;5094721;28;20204;-77
2021/03/05 04:01:10;;;;;;;34.88;18.63;;;3.00;99.90;;;;;;5095190;28;20173;-76
2021/03/05 04:03:38;;;;;;;35.15;19.48;;;3.00;99.90;;;;;;5095488;28;20174;-77
2021/03/05 04:06:06;;;;;;;38.25;17.88;;;2.90;99.90;;;;;;5095484;28;20515;-76
2021/03/05 04:08:39;;;;;;;39.63;17.70;;;2.90;99.90;;;;;;5094766;28;20195;-76
2021/03/05 04:11:07;;;;;;;36.03;17.95;;;3.00;99.90;;;;;;5094077;28;21008;-77
2021/03/05 04:13:33;;;;;;;36.92;19.45;;;3.00;99.90;;;;;;5095297;28;20203;-76
2021/03/05 04:15:59;;;;;;;39.28;19.42;;;2.90;99.90;;;;;;5095037;28;20561;-75
2021/03/05 04:18:39;;;;;;;32.88;17.95;;;2.90;99.90;;;;;;5094553;28;20694;-77
2021/03/05 04:21:13;;;;;;;35.88;19.35;;;3.00;99.90;;;;;;5094926;28;20179;-76
2021/03/05 04:23:39;;;;;;;41.78;20.55;;;3.00;99.90;;;;;;5094931;28;20220;-77
2021/03/05 04:26:05;;;;;;;35.83;20.27;;;3.00;99.90;;;;;;5094801;28;20180;-75
2021/03/05 04:28:30;;;;;;;37.37;20.07;;;2.90;99.90;;;;;;5094379;28;20238;-77
2021/03/05 04:30:56;;;;;;;43.63;20.17;;;2.90;99.90;;;;;;5094599;28;20256;-75
2021/03/05 04:33:22;;;;;;;38.17;21.50;;;3.00;99.90;;;;;;5094684;28;20176;-77
2021/03/05 04:35:47;;;;;;;39.10;21.73;;;3.10;99.90;;;;;;5094862;28;20189;-76
2021/03/05 04:38:13;;;;;;;31.63;19.43;;;3.00;99.90;;;;;;5094203;28;20204;-75
2021/03/05 04:40:39;;;;;;;33.10;19.70;;;3.00;99.90;;;;;;5094568;28;20191;-75
2021/03/05 04:43:04;;;;;;;37.90;21.10;;;3.00;99.90;;;;;;5094389;28;20168;-76
2021/03/05 04:45:30;;;;;;;37.57;20.47;;;2.90;99.90;;;;;;5093119;28;20650;-76
2021/03/05 04:47:56;;;;;;;28.57;17.33;;;2.80;99.90;;;;;;5094090;28;20283;-76
2021/03/05 04:50:21;;;;;;;32.10;17.37;;;2.90;99.90;;;;;;5094435;28;20263;-77
2021/03/05 04:52:47;;;;;;;34.17;18.80;;;2.70;99.90;;;;;;5094297;28;20209;-76
2021/03/05 04:55:13;;;;;;;29.50;18.90;;;2.70;99.90;;;;;;5094110;28;20168;-76
2021/03/05 04:57:38;;;;;;;27.03;16.83;;;2.70;99.90;;;;;;5093776;28;20196;-75
2021/03/05 05:00:05;;;;;;;29.40;17.93;;;2.70;99.90;;;;;;5094347;28;20183;-74
2021/03/05 05:02:30;;;;;;;29.40;17.60;;;2.70;99.90;;;;;;5094205;28;20175;-76
2021/03/05 05:04:56;;;;;;;36.53;17.40;;;2.60;99.90;;;;;;5094211;28;20175;-75
2021/03/05 05:07:22;;;;;;;34.37;19.40;;;2.70;99.90;;;;;;5093689;28;20168;-75
2021/03/05 05:09:47;;;;;;;31.20;19.57;;;2.70;99.90;;;;;;5093941;28;20203;-76
2021/03/05 05:12:13;;;;;;;33.30;19.67;;;2.70;99.90;;;;;;5094018;28;20301;-77
2021/03/05 05:14:39;;;;;;;35.43;20.60;;;2.60;99.90;;;;;;5093862;28;20559;-78
2021/03/05 05:17:04;;;;;;;30.73;19.70;;;2.50;99.90;;;;;;5093490;28;20168;-75
2021/03/05 05:19:30;;;;;;;31.07;17.90;;;2.50;99.90;;;;;;5094002;28;20214;-78
2021/03/05 05:21:56;;;;;;;30.73;19.77;;;2.40;99.90;;;;;;5093888;28;20179;-76
2021/03/05 05:24:22;;;;;;;28.03;19.83;;;2.50;99.90;;;;;;5093827;28;20536;-77
2021/03/05 05:26:47;;;;;;;31.37;18.87;;;2.50;99.90;;;;;;5093729;28;20455;-77
2021/03/05 05:29:13;;;;;;;32.40;18.07;;;2.50;99.90;;;;;;5093634;28;20278;-77
2021/03/05 05:31:39;;;;;;;26.40;16.90;;;2.50;99.90;;;;;;5093699;28;20176;-74
2021/03/05 05:34:04;;;;;;;34.73;18.53;;;2.50;99.90;;;;;;5093548;28;20233;-76
2021/03/05 05:36:30;;;;;;;29.13;20.90;;;2.40;99.90;;;;;;5093493;28;20662;-77
2021/03/05 05:38:55;;;;;;;29.63;18.47;;;2.50;99.90;;;;;;5093019;28;20209;-75
2021/03/05 05:41:24;;;;;;;30.10;17.13;;;2.50;99.90;;;;;;5093425;28;20172;-74
2021/03/05 05:43:50;;;;;;;31.38;17.40;;;2.60;99.90;;;;;;5093519;28;20541;-74
2021/03/05 05:46:17;;;;;;;25.27;17.90;;;2.40;99.90;;;;;;5092193;28;20183;-75
2021/03/05 05:48:47;;;;;;;31.52;17.98;;;2.40;99.90;;;;;;5091753;28;20789;-74
2021/03/05 05:51:20;;;;;;;27.33;16.42;;;2.50;99.90;;;;;;5093321;28;20176;-76
2021/03/05 05:53:46;;;;;;;25.20;16.80;;;2.50;99.90;;;;;;5093328;28;20179;-77
2021/03/05 05:56:17;;;;;;;29.58;16.75;;;2.50;99.90;;;;;;5093332;28;20172;-76
2021/03/05 05:58:44;;;;;;;22.50;14.55;;;2.60;99.90;;;;;;5092845;28;20208;-75
2021/03/05 06:01:10;;;;;;;25.17;15.50;;;2.60;99.90;;;;;;5093258;28;20191;-77
2021/03/05 06:03:37;;;;;;;23.13;13.85;;;2.50;99.90;;;;;;5093163;28;20176;-76
2021/03/05 06:06:03;;;;;;;26.13;16.40;;;2.60;99.90;;;;;;5093552;28;20179;-75
2021/03/05 06:08:29;;;;;;;26.37;15.37;;;2.60;99.90;;;;;;5083055;28;20203;-77
2021/03/05 06:10:55;;;;;;;23.45;14.93;;;2.60;99.90;;;;;;5084216;28;20209;-76
2021/03/05 06:13:24;;;;;;;26.40;16.33;;;2.60;99.90;;;;;;5073161;28;20210;-76
2021/03/05 06:16:15;;;;;;;25.50;15.88;;;2.60;99.90;;;;;;5072733;28;20223;-77
2021/03/05 06:18:41;;;;;;;25.90;15.90;;;2.60;99.90;;;;;;5072624;28;20200;-76
2021/03/05 06:21:07;;;;;;;21.83;13.82;;;2.70;99.90;;;;;;5072911;28;20173;-77
2021/03/05 06:23:35;;;;;;;23.13;15.00;;;2.60;99.90;;;;;;5072861;28;20176;-76
2021/03/05 06:26:03;;;;;;;20.23;13.15;;;2.60;99.90;;;;;;5072761;28;20203;-76
2021/03/05 06:28:29;;;;;;;21.00;13.60;;;2.60;99.90;;;;;;5072508;28;20218;-77
2021/03/05 06:30:55;;;;;;;18.53;12.20;;;2.50;99.90;;;;;;5072780;28;20181;-75
2021/03/05 06:33:31;;;;;;;19.42;12.85;;;2.50;99.90;;;;;;5072908;28;20415;-76
2021/03/05 06:36:18;;;;;;;27.45;12.20;;;2.50;99.90;;;;;;5076132;28;20259;-76
2021/03/05 06:38:45;;;;;;;18.58;13.82;;;2.50;99.90;;;;;;5076314;28;20232;-77
2021/03/05 06:41:19;;;;;;;17.95;12.70;;;2.50;99.90;;;;;;5076726;28;20251;-77
2021/03/05 06:43:47;;;;;;;15.75;12.63;;;2.50;99.90;;;;;;5075264;28;20655;-76
2021/03/05 06:46:28;;;;;;;18.15;11.43;;;2.40;99.90;;;;;;5076495;28;20222;-76
2021/03/05 06:48:55;;;;;;;17.02;10.95;;;2.30;99.90;;;;;;5076059;28;20197;-75
2021/03/05 06:51:21;;;;;;;19.67;10.27;;;2.50;99.90;;;;;;5075117;28;20266;-77
2021/03/05 06:53:47;;;;;;;14.88;9.80;;;2.20;99.90;;;;;;5076266;28;20169;-77
2021/03/05 06:56:26;;;;;;;13.13;9.32;;;2.20;99.90;;;;;;5076185;28;20625;-77
2021/03/05 06:59:08;;;;;;;12.27;9.23;;;2.10;99.90;;;;;;5079506;28;20228;-76
2021/03/05 07:01:46;;;;;;;11.40;8.25;;;2.00;99.90;;;;;;5091231;28;20176;-77
2021/03/05 07:04:14;;;;;;;12.93;8.82;;;2.00;99.90;;;;;;5096512;28;20202;-77
2021/03/05 07:06:41;;;;;;;11.48;8.07;;;1.80;99.90;;;;;;5095327;28;20222;-77
2021/03/05 07:09:08;;;;;;;9.25;7.82;;;1.80;99.90;;;;;;5075646;28;20220;-75
2021/03/05 07:11:43;;;;;;;10.35;6.70;;;1.80;99.90;;;;;;5075995;28;20180;-76
2021/03/05 07:14:11;;;;;;;9.68;7.00;;;1.80;99.90;;;;;;5075669;28;20270;-76
2021/03/05 07:16:48;;;;;;;11.85;7.68;;;1.80;99.90;;;;;;5108550;28;20243;-75
2021/03/05 07:19:19;;;;;;;7.93;6.95;;;1.70;99.90;;;;;;5075493;28;20206;-74
2021/03/05 07:21:47;;;;;;;11.95;7.53;;;1.80;99.90;;;;;;5075976;28;20173;-77
2021/03/05 07:24:15;;;;;;;9.70;6.30;;;1.80;99.90;;;;;;5075933;28;20176;-75
2021/03/05 07:26:59;;;;;;;8.20;6.60;;;1.80;99.90;;;;;;5077549;28;20609;-76
2021/03/05 07:29:32;;;;;;;10.75;6.80;;;1.80;99.90;;;;;;5086349;28;20207;-77
2021/03/05 07:32:09;;;;;;;8.88;5.15;;;1.80;99.90;;;;;;5086057;28;20179;-75
2021/03/05 07:35:04;;;;;;;8.32;5.70;;;1.70;99.90;;;;;;5085747;28;20248;-76
2021/03/05 07:37:35;;;;;;;10.25;5.30;;;1.70;99.90;;;;;;5087781;28;20208;-76
2021/03/05 07:40:23;;;;;;;7.63;5.75;;;1.90;99.90;;;;;;5095788;28;20242;-77
2021/03/05 07:42:55;;;;;;;8.50;6.13;;;1.90;99.90;;;;;;5095802;28;20168;-76
2021/03/05 07:45:20;;;;;;;10.50;5.20;;;1.90;99.90;;;;;;5091281;28;20183;-77
2021/03/05 07:47:48;;;;;;;12.03;5.77;;;1.90;99.90;;;;;;5085015;28;20191;-76
2021/03/05 07:50:16;;;;;;;14.00;6.10;;;2.00;99.90;;;;;;5083854;28;20207;-77
2021/03/05 07:52:42;;;;;;;8.25;5.47;;;2.10;99.90;;;;;;5090202;28;20532;-75
2021/03/05 07:55:08;;;;;;;6.38;5.63;;;2.10;99.90;;;;;;5095426;28;20178;-76
2021/03/05 07:57:34;;;;;;;8.68;5.95;;;2.10;99.90;;;;;;5094822;28;20192;-77
2021/03/05 08:00:00;;;;;;;6.80;5.53;;;2.10;99.90;;;;;;5095421;28;20168;-76
2021/03/05 08:02:59;;;;;;;9.38;5.80;;;2.10;99.90;;;;;;5095208;28;20174;-77
2021/03/05 08:05:37;;;;;;;7.07;6.38;;;2.10;99.90;;;;;;5095375;28;20307;-75
2021/03/05 08:08:07;;;;;;;7.30;5.45;;;2.20;99.90;;;;;;5094785;28;20260;-77
2021/03/05 08:11:05;;;;;;;7.38;5.57;;;2.30;99.90;;;;;;5093713;28;20659;-76
2021/03/05 08:13:54;;;;;;;11.30;7.43;;;2.40;99.90;;;;;;5078601;28;20564;-75
2021/03/05 08:16:29;;;;;;;16.08;10.65;;;2.30;99.90;;;;;;5095076;28;20527;-76
2021/03/05 08:19:04;;;;;;;9.48;5.32;;;2.30;99.90;;;;;;5093983;28;20207;-76
2021/03/05 08:22:02;;;;;;;8.18;4.78;;;2.40;99.90;;;;;;5094449;28;20178;-77
2021/03/05 08:24:35;;;;;;;8.50;4.82;;;2.60;99.90;;;;;;5078018;28;20187;-77
2021/03/05 08:27:17;;;;;;;9.30;5.60;;;2.50;99.90;;;;;;5093857;28;20175;-77
2021/03/05 08:30:06;;;;;;;14.32;12.52;;;2.50;99.90;;;;;;5094966;28;20180;-76
2021/03/05 08:32:32;;;;;;;97.75;87.40;;;2.40;99.90;;;;;;5094505;28;20509;-77
2021/03/05 08:35:00;;;;;;;51.90;42.53;;;2.40;99.90;;;;;;5093791;28;20183;-77
2021/03/05 08:37:46;;;;;;;33.45;30.10;;;2.50;99.90;;;;;;5094174;28;20175;-77
2021/03/05 08:40:12;;;;;;;6.57;4.88;;;2.50;99.90;;;;;;5094342;28;20182;-77
2021/03/05 08:42:45;;;;;;;6.63;4.17;;;2.50;99.90;;;;;;5093313;28;20179;-75
2021/03/05 08:45:18;;;;;;;9.35;4.07;;;2.60;99.90;;;;;;5094362;28;20402;-76
2021/03/05 08:47:46;;;;;;;5.47;3.55;;;2.70;99.90;;;;;;5092124;28;20289;-77
2021/03/05 08:50:13;;;;;;;9.77;4.30;;;2.80;99.90;;;;;;5093730;28;20594;-77
2021/03/05 08:52:40;;;;;;;6.72;3.85;;;2.70;99.90;;;;;;5092891;28;20176;-78
2021/03/05 08:55:07;;;;;;;7.75;4.50;;;2.90;99.90;;;;;;5092112;28;20176;-76
2021/03/05 08:57:52;;;;;;;8.65;4.05;;;2.80;99.90;;;;;;5092931;28;20192;-76
2021/03/05 09:00:22;;;;;;;9.40;3.67;;;2.80;99.90;;;;;;5094315;28;20190;-76
2021/03/05 09:02:50;;;;;;;4.35;3.33;;;2.60;99.90;;;;;;5091675;28;20209;-77
2021/03/05 09:05:31;;;;;;;9.15;4.38;;;2.80;99.90;;;;;;5094298;28;20196;-76
2021/03/05 09:07:58;;;;;;;9.43;4.65;;;2.80;99.90;;;;;;5093459;28;20201;-76
2021/03/05 09:10:57;;;;;;;5.65;3.95;;;3.00;99.90;;;;;;5093624;28;20179;-77
2021/03/05 09:13:26;;;;;;;6.50;3.63;;;3.00;99.90;;;;;;5093968;28;20168;-77
2021/03/05 09:15:54;;;;;;;6.35;3.33;;;3.20;99.90;;;;;;5091847;28;20245;-76
2021/03/05 09:18:28;;;;;;;5.80;4.07;;;3.50;99.90;;;;;;5093205;28;20209;-78
2021/03/05 09:21:03;;;;;;;9.68;3.92;;;3.60;99.90;;;;;;5092567;28;20203;-78
2021/03/05 09:23:33;;;;;;;3.60;3.30;;;3.60;99.90;;;;;;5093018;28;20175;-78
2021/03/05 09:26:15;;;;;;;4.88;3.33;;;3.90;99.90;;;;;;5093125;28;20214;-76
2021/03/05 09:28:49;;;;;;;4.65;3.08;;;4.10;99.90;;;;;;5092788;28;20196;-76
2021/03/05 09:31:23;;;;;;;8.65;3.40;;;4.00;99.90;;;;;;5092781;28;20169;-76
2021/03/05 09:33:49;;;;;;;2.97;2.25;;;4.50;99.90;;;;;;5093803;28;20181;-76
2021/03/05 09:36:18;;;;;;;5.60;3.13;;;4.80;99.90;;;;;;5093178;28;20175;-76
2021/03/05 09:38:46;;;;;;;4.00;2.70;;;4.10;99.90;;;;;;5090963;28;20214;-75
2021/03/05 09:41:14;;;;;;;2.78;2.55;;;4.00;99.90;;;;;;5093315;28;20168;-77
2021/03/05 09:43:41;;;;;;;3.28;2.75;;;4.20;99.90;;;;;;5091659;28;20636;-77
2021/03/05 09:46:18;;;;;;;5.75;3.17;;;4.70;99.90;;;;;;5092824;28;20598;-77
2021/03/05 09:48:43;;;;;;;9.05;2.72;;;4.60;99.90;;;;;;5092691;28;20211;-76
2021/03/05 09:51:09;;;;;;;3.67;2.40;;;4.20;99.90;;;;;;5092392;28;20211;-76
2021/03/05 09:53:46;;;;;;;3.00;2.47;;;4.40;99.90;;;;;;5092965;28;20173;-77
2021/03/05 09:56:12;;;;;;;3.50;2.50;;;4.80;99.90;;;;;;5093335;28;20224;-76
2021/03/05 09:59:00;;;;;;;5.80;3.03;;;4.70;99.90;;;;;;5092011;28;20208;-76
2021/03/05 10:01:28;;;;;;;3.65;2.83;;;5.00;99.90;;;;;;5093138;28;20245;-76
2021/03/05 10:04:01;;;;;;;4.97;2.83;;;4.40;99.90;;;;;;5092984;28;20176;-77
2021/03/05 10:06:28;;;;;;;6.80;3.55;;;4.50;99.90;;;;;;5092505;28;20172;-75
2021/03/05 10:09:21;;;;;;;5.72;3.40;;;4.40;99.90;;;;;;5092680;28;20574;-76
2021/03/05 10:11:47;;;;;;;4.40;3.10;;;5.30;99.90;;;;;;5093124;28;20191;-78
2021/03/05 10:14:23;;;;;;;6.37;3.30;;;6.10;99.90;;;;;;5096947;28;20422;-78
2021/03/05 10:16:50;;;;;;;7.03;4.10;;;6.50;99.90;;;;;;5097357;28;20176;-78
2021/03/05 10:19:24;;;;;;;6.10;3.50;;;6.20;99.90;;;;;;5095998;28;20818;-76
2021/03/05 10:21:54;;;;;;;3.80;3.50;;;5.80;99.90;;;;;;5097202;28;20413;-76
2021/03/05 10:24:26;;;;;;;5.37;3.80;;;6.30;99.90;;;;;;5096853;28;20398;-76
2021/03/05 10:27:21;;;;;;;4.60;3.80;;;6.50;99.90;;;;;;5096505;28;20385;-76
2021/03/05 10:29:47;;;;;;;7.63;3.90;;;6.60;99.90;;;;;;5096964;28;20463;-77
2021/03/05 10:32:16;;;;;;;3.93;3.57;;;6.80;99.90;;;;;;5096769;28;20419;-77
2021/03/05 10:34:45;;;;;;;5.00;4.10;;;7.20;99.90;;;;;;5096140;28;20962;-77
2021/03/05 10:37:11;;;;;;;5.20;4.20;;;7.90;99.90;;;;;;5096524;28;20418;-76
2021/03/05 10:39:37;;;;;;;6.23;4.10;;;7.60;99.90;;;;;;5096181;28;20481;-76
2021/03/05 10:42:05;;;;;;;4.23;3.83;;;7.50;99.90;;;;;;5096307;28;20171;-73
2021/03/05 10:44:32;;;;;;;6.10;3.57;;;7.80;99.90;;;;;;5096890;28;20168;-78
2021/03/05 10:47:12;;;;;;;6.63;3.63;;;7.40;99.90;;;;;;5095676;28;20388;-77
2021/03/05 10:49:38;;;;;;;7.53;4.33;;;7.80;99.90;;;;;;5096083;28;20409;-75
2021/03/05 10:52:05;;;;;;;4.23;3.70;;;7.40;99.90;;;;;;5096642;28;20389;-77
2021/03/05 10:54:30;;;;;;;5.83;3.83;;;7.20;99.90;;;;;;5095409;28;20427;-75
2021/03/05 10:56:56;;;;;;;7.63;3.77;;;5.90;99.90;;;;;;5095941;28;20434;-75
2021/03/05 10:59:23;;;;;;;6.67;4.73;;;6.90;99.90;;;;;;5096119;28;20204;-78
2021/03/05 11:01:52;;;;;;;5.80;4.20;;;6.90;99.90;;;;;;5094987;28;20172;-76
2021/03/05 11:04:19;;;;;;;4.10;3.40;;;7.40;99.90;;;;;;5096536;28;20429;-77
2021/03/05 11:06:46;;;;;;;5.30;4.80;;;7.30;99.90;;;;;;5096537;28;20832;-77
2021/03/05 11:09:15;;;;;;;5.33;4.33;;;8.00;99.90;;;;;;5094959;28;20504;-76
2021/03/05 11:11:42;;;;;;;6.30;4.17;;;8.20;99.90;;;;;;5096254;28;20412;-77
2021/03/05 11:14:08;;;;;;;5.07;4.57;;;6.60;99.90;;;;;;5096058;28;20442;-77
2021/03/05 11:16:34;;;;;;;6.00;4.97;;;6.20;99.90;;;;;;5095098;28;20444;-76
2021/03/05 11:19:00;;;;;;;5.30;3.93;;;6.40;99.90;;;;;;5095798;28;20545;-77
2021/03/05 11:21:25;;;;;;;5.03;4.53;;;6.40;99.90;;;;;;5095755;28;20463;-76
2021/03/05 11:23:52;;;;;;;5.60;5.07;;;6.30;99.90;;;;;;5094789;28;20169;-74
2021/03/05 11:26:17;;;;;;;8.52;4.53;;;5.80;99.90;;;;;;5096113;28;20172;-76
2021/03/05 11:28:43;;;;;;;6.40;4.57;;;5.90;99.90;;;;;;5095350;28;20249;-78
2021/03/05 11:31:12;;;;;;;6.47;4.10;;;6.70;99.90;;;;;;5095000;28;20240;-77
2021/03/05 11:33:39;;;;;;;6.97;4.20;;;6.80;99.90;;;;;;5094777;28;20541;-78
2021/03/05 11:36:06;;;;;;;3.70;3.40;;;7.80;99.90;;;;;;5094703;28;20444;-77
2021/03/05 11:38:32;;;;;;;4.03;3.30;;;8.00;99.90;;;;;;5094328;28;20834;-78
2021/03/05 11:40:57;;;;;;;3.83;3.30;;;8.20;99.90;;;;;;5095515;28;20403;-78
2021/03/05 11:43:23;;;;;;;6.07;4.20;;;7.80;99.90;;;;;;5095176;28;20406;-76
2021/03/05 11:45:48;;;;;;;5.70;3.87;;;8.60;99.90;;;;;;5094624;28;20176;-77
2021/03/05 11:48:14;;;;;;;5.27;3.70;;;8.40;99.90;;;;;;5079635;28;20224;-76
2021/03/05 11:50:40;;;;;;;5.40;3.23;;;8.10;99.90;;;;;;5073687;28;20187;-76
2021/03/05 11:53:06;;;;;;;4.27;3.83;;;8.50;99.90;;;;;;5074619;28;20646;-77
2021/03/05 11:55:32;;;;;;;3.93;3.50;;;7.90;99.90;;;;;;5075072;28;20414;-76
2021/03/05 11:58:01;;;;;;;5.93;3.80;;;7.60;99.90;;;;;;5073943;28;20550;-76
2021/03/05 12:00:28;;;;;;;3.90;3.33;;;7.60;99.90;;;;;;5074539;28;20469;-77
2021/03/05 12:02:54;;;;;;;4.43;3.63;;;8.10;99.90;;;;;;5075003;28;20407;-77
2021/03/05 12:05:20;;;;;;;7.80;3.83;;;8.10;99.90;;;;;;5082094;28;20527;-77
2021/03/05 12:07:46;;;;;;;6.90;3.60;;;7.90;99.90;;;;;;5084269;28;20273;-75
2021/03/05 12:10:12;;;;;;;6.80;3.13;;;8.50;99.90;;;;;;5083115;28;20262;-76
2021/03/05 12:12:37;;;;;;;3.87;3.30;;;9.50;99.90;;;;;;5084349;28;20203;-78
2021/03/05 12:15:04;;;;;;;4.47;3.30;;;9.80;99.90;;;;;;5084128;28;20824;-76
2021/03/05 12:17:30;;;;;;;5.30;3.60;;;10.00;99.90;;;;;;5083057;28;20561;-76
2021/03/05 12:19:55;;;;;;;4.87;3.67;;;10.30;99.90;;;;;;5081857;28;20450;-76
2021/03/05 12:22:21;;;;;;;4.47;3.10;;;10.20;99.90;;;;;;5084389;28;20180;-76
2021/03/05 12:24:47;;;;;;;4.57;3.43;;;11.20;99.90;;;;;;5084711;28;20185;-76
2021/03/05 12:27:12;;;;;;;3.50;2.60;;;10.90;99.90;;;;;;5081828;28;20238;-78
2021/03/05 12:29:38;;;;;;;4.03;2.90;;;11.20;99.90;;;;;;5085762;28;20396;-76
2021/03/05 12:32:04;;;;;;;7.67;4.00;;;10.50;99.90;;;;;;5084463;28;20211;-75
2021/03/05 12:34:30;;;;;;;4.70;3.67;;;10.70;99.90;;;;;;5081957;28;20229;-78
2021/03/05 12:36:55;;;;;;;5.43;3.73;;;10.10;99.90;;;;;;5081188;28;20498;-74
2021/03/05 12:39:21;;;;;;;4.10;3.07;;;10.40;99.90;;;;;;5080507;28;20207;-76
2021/03/05 12:41:47;;;;;;;5.27;3.50;;;10.50;99.90;;;;;;5083508;28;20187;-76
2021/03/05 12:44:12;;;;;;;4.00;3.33;;;10.30;99.90;;;;;;5083069;28;20446;-76
2021/03/05 12:46:38;;;;;;;3.03;2.73;;;10.40;99.90;;;;;;5083191;28;20628;-77
2021/03/05 12:49:03;;;;;;;5.10;4.17;;;10.80;99.90;;;;;;5080434;28;20208;-78
2021/03/05 12:51:29;;;;;;;5.83;3.40;;;10.60;99.90;;;;;;5084234;28;20181;-77
2021/03/05 12:53:55;;;;;;;5.00;3.50;;;10.60;99.90;;;;;;5079526;28;20234;-77
2021/03/05 12:56:20;;;;;;;5.17;3.83;;;9.90;99.90;;;;;;5073082;28;20307;-76
2021/03/05 12:58:46;;;;;;;4.63;3.70;;;10.10;99.90;;;;;;5073282;28;20330;-76
2021/03/05 13:01:12;;;;;;;4.17;3.50;;;9.80;99.90;;;;;;5072418;28;20180;-75